Latest Weather Observations for East Sale Airport

IDV60801

Issued at 7:22 pm EDT Monday 25 October 2021 (issued every 10 minutes, with the page automatically refreshed every 10 minutes)

About weather observations | Map of weather stations | Latest weather observations for VIC | Other Formats
Station Details ID: 085314 Name: EAST SALE AIRPORT Lat: -38.10 Lon: 147.14 Height: 5.3 m
Data from the previous 72 hours. | See also: Recent months at East Sale Airport
Date/Time
EDT
Temp
°C
App
Temp
°C
Dew
Point
°C
Rel
Hum
%
Delta-T
°C
Wind Press
QNH
hPa
Press
MSL
hPa
Rain since
9am
mm
Dir  Spd
km/h
Gust
km/h
Spd
kts
Gust
kts
25/07:00pm 12.4 10.1 7.3 71 2.5 S 9 13 5 7 1019.8 1019.8 0.2
25/06:30pm 12.5 9.0 7.0 69 2.6 S 15 20 8 11 1019.6 1019.6 0.2
25/06:00pm 13.0 9.4 6.6 65 3.1 S 15 19 8 10 1019.5 1019.5 0.2
25/05:30pm 13.8 9.5 7.1 64 3.3 S 19 24 10 13 1019.4 1019.4 0.2
25/05:00pm 13.2 8.9 6.8 65 3.1 S 19 24 10 13 1019.3 1019.3 0.2
25/04:30pm 13.4 8.8 6.7 64 3.2 S 20 28 11 15 1019.1 1019.1 0.2
25/04:00pm 13.4 9.3 7.8 69 2.7 S 19 24 10 13 1019.2 1019.2 0.2
25/03:30pm 13.9 10.6 7.9 67 3.0 S 15 20 8 11 1019.2 1019.2 0.2
25/03:00pm 13.3 9.8 7.1 66 3.0 S 15 20 8 11 1019.4 1019.4 0.2
25/02:30pm 14.0 9.3 7.8 66 3.1 S 22 28 12 15 1019.3 1019.3 0.2
25/02:00pm 13.6 9.1 8.7 72 2.5 S 22 30 12 16 1019.3 1019.3 0.2
25/01:30pm 13.7 11.0 7.5 66 3.0 SW 11 17 6 9 1019.4 1019.4 0.2
25/01:00pm 13.9 10.5 7.7 66 3.0 WSW 15 22 8 12 1019.4 1019.4 0.2
25/12:30pm 14.9 12.0 6.7 58 4.0 WSW 11 20 6 11 1019.3 1019.3 0.2
25/12:00pm 14.1 9.7 6.7 61 3.6 SW 19 24 10 13 1019.6 1019.6 0.0
25/11:30am 14.3 10.1 8.3 67 3.0 WSW 20 28 11 15 1019.8 1019.8 0.0
25/11:00am 15.4 11.1 6.9 57 4.2 SW 19 24 10 13 1019.8 1019.8 0.0
25/10:30am 14.9 10.2 7.9 63 3.5 SSW 22 30 12 16 1019.9 1019.9 0.0
25/10:00am 13.9 10.1 7.4 65 3.2 W 17 26 9 14 1020.0 1020.0 0.0
25/09:30am 12.7 8.4 7.0 68 2.7 SW 19 28 10 15 1020.0 1020.0 0.0
25/09:00am 11.9 7.7 8.4 79 1.7 W 20 26 11 14 1019.9 1019.9 0.2
25/08:30am 11.6 7.7 8.5 81 1.5 W 19 30 10 16 1019.7 1019.7 0.2
25/08:00am 10.4 6.2 8.2 86 1.1 W 20 28 11 15 1019.5 1019.5 0.2
25/07:30am 9.3 4.9 7.3 87 0.9 W 20 28 11 15 1019.1 1019.1 0.2
25/07:00am 9.0 4.5 7.1 88 0.9 W 20 32 11 17 1018.8 1018.8 0.2
25/06:30am 8.8 4.4 7.3 90 0.7 W 20 28 11 15 1018.6 1018.6 0.2
25/06:00am 8.7 3.8 6.8 88 0.9 W 22 28 12 15 1018.4 1018.4 0.2
25/05:30am 8.7 3.8 6.7 87 0.9 W 22 30 12 16 1018.3 1018.3 0.2
25/05:00am 8.6 4.2 6.6 87 0.9 W 19 26 10 14 1018.1 1018.1 0.2
25/04:30am 8.3 4.2 6.3 87 0.9 W 17 24 9 13 1018.2 1018.2 0.2
25/04:00am 8.5 4.4 6.3 86 1.0 W 17 24 9 13 1018.3 1018.3 0.2
25/03:30am 8.2 3.6 5.8 85 1.1 WNW 19 24 10 13 1018.2 1018.2 0.2
25/03:00am 8.1 3.9 5.6 84 1.1 W 17 22 9 12 1018.5 1018.5 0.2
25/02:30am 8.4 3.7 5.3 81 1.4 W 19 28 10 15 1018.7 1018.7 0.2
25/02:00am 8.4 4.1 5.3 81 1.4 W 17 24 9 13 1019.0 1019.0 0.2
25/01:30am 8.5 4.7 5.6 82 1.3 WNW 15 19 8 10 1019.1 1019.1 0.2
25/01:00am 8.6 4.8 5.9 83 1.2 WNW 15 20 8 11 1019.5 1019.5 0.2
25/12:30am 8.6 4.8 5.9 83 1.2 WNW 15 19 8 10 1019.8 1019.8 0.2
25/12:00am 9.0 5.2 5.6 79 1.5 NW 15 20 8 11 1019.9 1019.9 0.2
 
Date/Time
EDT
Temp
°C
App
Temp
°C
Dew
Point
°C
Rel
Hum
%
Delta-T
°C
Wind Press
QNH
hPa
Press
MSL
hPa
Rain since
9am
mm
Dir  Spd
km/h
Gust
km/h
Spd
kts
Gust
kts
24/11:30pm 10.1 6.3 5.9 75 1.9 WNW 15 20 8 11 1020.1 1020.1 0.2
24/11:00pm 10.2 5.6 5.8 74 2.0 WNW 19 24 10 13 1020.3 1020.3 0.2
24/10:30pm 10.2 6.0 5.6 73 2.1 WNW 17 20 9 11 1020.5 1020.5 0.2
24/10:00pm 10.2 6.7 5.4 72 2.2 WNW 13 19 7 10 1020.7 1020.7 0.2
24/09:30pm 9.9 5.9 4.9 71 2.2 WNW 15 19 8 10 1020.6 1020.6 0.2
24/09:00pm 9.9 5.1 4.7 70 2.3 W 19 24 10 13 1020.6 1020.6 0.2
24/08:30pm 10.9 5.1 4.4 64 2.9 W 24 33 13 18 1020.0 1020.0 0.2
24/08:00pm 11.1 6.3 5.4 68 2.6 W 20 28 11 15 1019.8 1019.8 0.2
24/07:30pm 11.7 7.5 5.6 66 2.8 W 17 26 9 14 1019.6 1019.6 0.2
24/07:00pm 12.8 7.2 5.2 60 3.5 WSW 24 35 13 19 1019.4 1019.4 0.2
24/06:30pm 13.5 6.7 4.9 56 4.0 WSW 30 44 16 24 1019.2 1019.2 0.2
24/06:00pm 14.5 6.8 3.6 48 4.9 W 33 46 18 25 1018.7 1018.7 0.2
24/05:30pm 15.8 8.4 3.9 45 5.5 W 32 44 17 24 1018.6 1018.6 0.2
24/05:00pm 14.8 7.4 4.2 49 4.9 W 32 44 17 24 1018.4 1018.4 0.2
24/04:37pm 15.7 8.4 5.6 51 4.8 W 33 52 18 28 1018.4 1018.4 0.2
24/04:30pm 15.6 8.2 4.9 49 5.0 W 33 46 18 25 1018.4 1018.4 0.2
24/04:08pm 16.4 9.7 5.4 48 5.3 W 30 50 16 27 1018.3 1018.3 0.2
24/04:00pm 16.9 10.6 5.5 47 5.5 W 28 39 15 21 1018.4 1018.4 0.2
24/03:30pm 17.6 11.0 5.9 46 5.7 W 30 43 16 23 1018.4 1018.4 0.2
24/03:00pm 16.9 10.4 6.4 50 5.1 W 30 41 16 22 1018.5 1018.5 0.2
24/02:30pm 15.0 7.7 4.7 50 4.8 WSW 32 48 17 26 1018.8 1018.8 0.2
24/02:21pm 15.9 10.8 6.1 52 4.7 WSW 22 46 12 25 1018.8 1018.8 0.2
24/02:00pm 15.8 10.6 7.1 56 4.3 WSW 24 39 13 21 1018.8 1018.8 0.2
24/01:30pm 17.0 11.8 8.7 58 4.3 W 26 35 14 19 1018.8 1018.8 0.2
24/01:00pm 15.0 9.6 6.3 56 4.2 WSW 24 37 13 20 1019.1 1019.1 0.2
24/12:30pm 16.2 10.9 6.9 54 4.6 WSW 24 37 13 20 1019.2 1019.2 0.2
24/12:00pm 14.8 9.6 5.3 53 4.5 WSW 22 33 12 18 1019.2 1019.2 0.2
24/11:30am 15.0 9.4 5.5 53 4.5 WSW 24 32 13 17 1019.3 1019.3 0.2
24/11:00am 14.8 8.6 6.1 56 4.2 W 28 39 15 21 1019.2 1019.2 0.2
24/10:30am 14.5 7.5 5.8 56 4.1 W 32 43 17 23 1019.2 1019.2 0.2
24/10:00am 14.3 7.7 7.8 65 3.2 W 32 46 17 25 1019.1 1019.1 0.0
24/09:51am 14.2 8.1 6.8 61 3.6 W 28 46 15 25 1019.1 1019.1 0.0
24/09:30am 13.4 7.1 7.4 67 2.9 W 30 43 16 23 1019.1 1019.1 0.0
24/09:00am 13.0 6.5 8.1 72 2.4 W 32 44 17 24 1019.1 1019.1 1.0
24/08:30am 12.3 5.7 7.8 74 2.2 W 32 44 17 24 1019.1 1019.1 1.0
24/08:00am 11.6 6.2 7.9 78 1.8 W 26 39 14 21 1019.0 1019.0 1.0
24/07:30am 10.7 6.4 7.8 82 1.4 WNW 20 26 11 14 1018.7 1018.7 1.0
24/07:00am 10.1 5.9 7.3 83 1.3 WNW 19 26 10 14 1018.6 1018.6 1.0
24/06:30am 9.7 4.8 7.1 84 1.2 W 22 30 12 16 1018.3 1018.3 1.0
24/06:00am 9.9 5.1 7.5 85 1.1 W 22 33 12 18 1017.8 1017.8 1.0
24/05:30am 10.1 5.8 7.7 85 1.2 WNW 20 30 11 16 1017.7 1017.7 1.0
24/05:00am 10.5 6.4 7.9 84 1.3 W 19 28 10 15 1017.7 1017.7 1.0
24/04:30am 10.6 6.5 8.5 87 1.0 W 20 37 11 20 1017.5 1017.5 1.0
24/04:00am 10.8 6.6 8.2 84 1.3 W 20 32 11 17 1017.4 1017.4 1.0
24/03:30am 10.8 7.2 8.2 84 1.3 W 17 26 9 14 1017.5 1017.5 1.0
24/03:00am 10.9 6.7 8.1 83 1.4 W 20 30 11 16 1017.7 1017.7 1.0
24/02:30am 11.0 6.4 8.1 82 1.4 WNW 22 30 12 16 1017.5 1017.5 1.0
24/02:00am 10.9 6.6 8.0 82 1.4 WNW 20 33 11 18 1017.8 1017.8 1.0
24/01:30am 10.8 6.5 8.0 83 1.4 W 20 32 11 17 1017.7 1017.7 1.0
24/01:00am 10.3 6.2 7.9 85 1.2 WNW 19 26 10 14 1017.9 1017.9 1.0
24/12:30am 10.0 6.3 7.9 87 1.0 WNW 17 20 9 11 1018.1 1018.1 1.0
24/12:00am 9.9 6.1 7.7 86 1.1 WNW 17 22 9 12 1018.2 1018.2 1.0
 
Date/Time
EDT
Temp
°C
App
Temp
°C
Dew
Point
°C
Rel
Hum
%
Delta-T
°C
Wind Press
QNH
hPa
Press
MSL
hPa
Rain since
9am
mm
Dir  Spd
km/h
Gust
km/h
Spd
kts
Gust
kts
23/11:30pm 9.8 6.0 7.4 85 1.1 NW 17 20 9 11 1018.0 1018.0 1.0
23/11:00pm 10.6 6.4 7.5 81 1.5 WNW 19 30 10 16 1017.7 1017.7 1.0
23/10:30pm 10.9 7.9 7.6 80 1.6 WNW 13 20 7 11 1017.9 1017.9 1.0
23/10:00pm 11.4 7.1 7.7 78 1.8 W 20 32 11 17 1017.7 1017.7 1.0
23/09:30pm 11.6 6.8 7.5 76 2.0 W 22 33 12 18 1017.5 1017.5 1.0
23/09:00pm 11.9 7.1 7.4 74 2.2 W 22 35 12 19 1016.8 1016.8 1.0
23/08:30pm 12.3 5.9 7.0 70 2.5 WSW 30 41 16 22 1016.1 1016.1 1.0
23/08:00pm 12.5 6.9 7.2 70 2.6 WSW 26 41 14 22 1015.7 1015.7 1.0
23/07:30pm 13.3 7.6 8.2 71 2.5 W 28 37 15 20 1015.2 1015.2 1.0
23/07:00pm 14.2 8.5 8.4 68 2.9 W 28 39 15 21 1014.6 1014.6 1.0
23/06:30pm 14.8 8.6 9.4 70 2.8 W 32 41 17 22 1014.6 1014.6 1.0
23/06:00pm 15.5 10.7 10.3 71 2.7 W 26 44 14 24 1014.2 1014.2 1.0
23/05:30pm 15.1 9.0 9.7 70 2.8 W 32 46 17 25 1013.6 1013.6 1.0
23/05:00pm 15.6 9.2 9.3 66 3.2 W 33 44 18 24 1013.0 1013.0 1.0
23/04:30pm 16.9 11.2 11.0 68 3.2 W 32 46 17 25 1013.0 1013.0 1.0
23/04:00pm 16.1 10.6 10.6 70 2.9 W 30 41 16 22 1012.8 1012.8 1.0
23/03:30pm 15.4 10.4 11.0 75 2.3 W 28 39 15 21 1012.5 1012.5 1.0
23/03:00pm 15.2 10.4 11.6 79 1.9 W 28 41 15 22 1012.3 1012.3 1.0
23/02:30pm 14.5 9.9 12.4 87 1.1 W 28 46 15 25 1012.4 1012.4 1.0
23/02:21pm 14.5 10.0 12.7 89 1.0 W 28 46 15 25 1012.3 1012.3 0.6
23/02:18pm 14.3 10.1 12.5 89 1.0 W 26 39 14 21 1012.3 1012.3 0.6
23/02:00pm 15.3 11.2 12.6 84 1.5 W 26 37 14 20 1012.3 1012.3 0.0
23/01:30pm 16.0 12.1 13.3 84 1.5 W 26 35 14 19 1012.4 1012.4 0.0
23/01:00pm 16.9 13.1 13.6 81 1.9 W 26 35 14 19 1012.2 1012.2 0.0
23/12:30pm 17.8 15.2 13.3 75 2.5 W 19 28 10 15 1012.2 1012.2 0.0
23/12:00pm 17.0 13.7 12.7 76 2.4 WSW 22 33 12 18 1012.2 1012.2 0.0
23/11:30am 16.8 13.0 13.5 81 1.9 W 26 33 14 18 1012.4 1012.4 0.0
23/11:00am 17.1 14.7 13.8 81 1.9 W 19 28 10 15 1012.4 1012.4 0.0
23/10:48am 17.6 15.4 14.9 84 1.6 W 20 26 11 14 1012.4 1012.4 0.0
23/10:34am 17.8 16.1 15.8 88 1.2 W 19 26 10 14 1012.5 1012.5 0.0
23/10:32am 17.3 15.2 15.1 87 1.3 W 20 28 11 15 1012.5 1012.5 0.0
23/10:30am 17.3 14.8 15.1 87 1.3 W 22 28 12 15 1012.5 1012.5 0.0
23/10:00am 16.1 14.6 15.3 95 0.5 W 17 22 9 12 1012.4 1012.4 0.0
23/09:30am 15.2 13.1 14.7 97 0.3 W 19 26 10 14 1012.6 1012.6 0.0
23/09:00am 15.1 13.7 14.6 97 0.3 W 15 20 8 11 1012.5 1012.5 4.4
23/08:30am 15.0 13.6 14.5 97 0.3 WNW 15 22 8 12 1012.5 1012.5 3.8
23/08:00am 15.0 14.8 14.7 98 0.2 W 9 17 5 9 1012.2 1012.2 3.6
23/07:30am 14.9 14.2 14.4 97 0.3 W 11 17 6 9 1012.0 1012.0 3.0
23/07:29am 14.9 13.8 14.4 97 0.3 W 13 17 7 9 1012.0 1012.0 3.0
23/07:09am 14.9 13.1 14.4 97 0.3 WSW 17 24 9 13 1012.1 1012.1 2.6
23/07:00am 14.9 13.5 14.4 97 0.3 WSW 15 20 8 11 1011.8 1011.8 2.4
23/06:59am 14.9 13.5 14.4 97 0.3 WSW 15 20 8 11 1011.8 1011.8 2.4
23/06:30am 15.1 13.7 14.5 96 0.3 W 15 24 8 13 1012.1 1012.1 0.8
23/06:20am 15.2 13.8 14.6 96 0.3 WSW 15 20 8 11 1012.1 1012.1 0.0
23/06:00am 15.3 13.1 14.5 95 0.5 W 19 24 10 13 1011.8 1011.8 0.0
23/05:33am 15.5 14.5 14.7 95 0.5 WNW 13 17 7 9 1011.5 1011.5 0.0
23/05:30am 15.6 14.3 14.8 95 0.5 WNW 15 20 8 11 1011.3 1011.3 0.0
23/05:00am 15.7 14.7 14.6 93 0.6 WSW 13 17 7 9 1010.8 1010.8 0.0
23/04:30am 15.9 15.0 14.8 93 0.6 WSW 13 19 7 10 1010.8 1010.8 0.0
23/04:00am 15.9 15.0 14.8 93 0.6 WSW 13 17 7 9 1010.5 1010.5 0.0
23/03:30am 16.1 14.5 15.0 93 0.6 WSW 17 24 9 13 1010.6 1010.6 0.0
23/03:00am 16.5 14.5 14.9 90 0.9 W 19 28 10 15 1010.7 1010.7 0.0
23/02:30am 16.5 15.7 15.0 91 0.9 W 13 20 7 11 1010.3 1010.3 0.0
23/02:00am 16.5 15.8 15.5 94 0.6 W 13 19 7 10 1010.2 1010.2 0.0
23/01:30am 16.2 16.4 15.7 97 0.3 W 9 11 5 6 1010.8 1010.8 0.0
23/01:00am 16.1 16.6 15.6 97 0.3 W 7 9 4 5 1010.5 1010.5 0.0
23/12:30am 15.9 16.3 15.4 97 0.3 NW 7 9 4 5 1010.9 1010.9 0.0
23/12:00am 16.1 16.8 15.6 97 0.3 SE 6 7 3 4 1011.0 1011.0 0.0
 
Date/Time
EDT
Temp
°C
App
Temp
°C
Dew
Point
°C
Rel
Hum
%
Delta-T
°C
Wind Press
QNH
hPa
Press
MSL
hPa
Rain since
9am
mm
Dir  Spd
km/h
Gust
km/h
Spd
kts
Gust
kts
22/11:30pm 15.8 15.4 15.2 96 0.3 ESE 11 15 6 8 1011.2 1011.2 0.0
22/11:00pm 15.7 15.6 14.9 95 0.5 SE 9 11 5 6 1011.5 1011.5 0.0
22/10:30pm 15.7 15.5 14.7 94 0.6 SE 9 13 5 7 1011.7 1011.7 0.0
22/10:00pm 16.3 16.3 15.2 93 0.6 ESE 9 11 5 6 1012.0 1012.0 0.0
22/09:30pm 15.9 14.8 14.4 91 0.9 ESE 13 15 7 8 1012.1 1012.1 0.0
22/09:00pm 15.9 15.2 14.4 91 0.9 SE 11 13 6 7 1012.4 1012.4 0.0
22/08:30pm 15.7 15.2 13.7 88 1.1 ESE 9 11 5 6 1012.5 1012.5 0.0
22/08:00pm 16.3 15.8 13.8 85 1.4 ESE 9 13 5 7 1012.4 1012.4 0.0
22/07:30pm 18.0 17.0 14.5 80 2.0 E 13 15 7 8 1012.2 1012.2 0.0

Other formats

Comma delimited format used in spreadsheet applications
http://www.bom.gov.au/fwo/IDV60801/IDV60801.95907.axf

JavaScript Object Notation format (JSON) in row-major order
http://www.bom.gov.au/fwo/IDV60801/IDV60801.95907.json

Data quality

Most of these data are generated automatically and are frequently updated. Quality checks on data are not normally performed. It is possible for incorrect values to appear. Refer to information at About Latest Weather Observations and please check the disclaimer before using these data.